Time;durP1;ratioP1;P1;durP2;ratioP2;P2;SDS_P1;SDS_P2;PMS_P1;PMS_P2;Temp;Humidity;BMP_temperature;BMP_pressure;BME280_temperature;BME280_humidity;BME280_pressure;Samples;Min_cycle;Max_cycle;Signal;HPM_P1;HPM_P2
2022/01/09 00:02:25;;;;;;;7.90;3.90;;;;;;;2.75;79.19;99411.13;5071032;28;20229;-71
2022/01/09 00:04:50;;;;;;;6.90;3.70;;;;;;;2.74;79.85;99409.41;5070570;28;20243;-71
2022/01/09 00:07:15;;;;;;;5.27;3.57;;;;;;;2.75;80.08;99411.13;5070966;28;20209;-71
2022/01/09 00:09:44;;;;;;;7.00;3.97;;;;;;;2.79;80.68;99402.78;5070623;28;20181;-71
2022/01/09 00:12:09;;;;;;;11.03;3.80;;;;;;;2.77;79.45;99405.31;5070596;28;20246;-71
2022/01/09 00:14:34;;;;;;;8.17;3.70;;;;;;;2.77;80.37;99400.25;5070859;28;20188;-71
2022/01/09 00:17:00;;;;;;;7.73;4.37;;;;;;;2.76;80.40;99380.00;5070609;28;20213;-71
2022/01/09 00:19:26;;;;;;;7.57;3.70;;;;;;;2.77;79.91;99380.03;5070385;28;20243;-71
2022/01/09 00:21:51;;;;;;;4.93;3.63;;;;;;;2.77;80.09;99377.50;5070555;28;20267;-71
2022/01/09 00:24:17;;;;;;;5.20;3.47;;;;;;;2.79;80.74;99375.88;5070605;28;20626;-71
2022/01/09 00:26:42;;;;;;;5.57;3.60;;;;;;;2.78;79.89;99371.63;5069619;28;20263;-71
2022/01/09 00:29:09;;;;;;;6.60;3.67;;;;;;;2.81;80.64;99369.16;5068355;28;20198;-71
2022/01/09 00:31:34;;;;;;;7.07;4.07;;;;;;;2.85;80.27;99365.06;5070578;28;20758;-71
2022/01/09 00:34:00;;;;;;;8.43;3.67;;;;;;;2.83;80.20;99362.50;5070291;28;20219;-71
2022/01/09 00:36:25;;;;;;;4.70;3.97;;;;;;;2.84;80.90;99356.63;5069671;28;20227;-71
2022/01/09 00:38:50;;;;;;;6.63;3.57;;;;;;;2.83;80.38;99352.41;5070121;28;20189;-70
2022/01/09 00:41:16;;;;;;;4.47;3.70;;;;;;;2.84;80.03;99348.16;5070116;28;20200;-70
2022/01/09 00:43:41;;;;;;;6.63;3.60;;;;;;;2.85;80.10;99353.28;5067800;28;20193;-71
2022/01/09 00:46:06;;;;;;;5.10;3.27;;;;;;;2.84;80.63;99335.53;5070135;28;20216;-71
2022/01/09 00:48:32;;;;;;;6.37;3.33;;;;;;;2.87;80.52;99341.53;5068685;28;20201;-72
2022/01/09 00:50:58;;;;;;;6.33;3.73;;;;;;;2.86;80.76;99336.44;5070134;28;20181;-71
2022/01/09 00:53:24;;;;;;;5.10;3.20;;;;;;;2.85;81.71;99338.09;5069977;28;20193;-71
2022/01/09 00:55:49;;;;;;;5.13;3.73;;;;;;;2.90;80.80;99338.25;5068524;28;20255;-71
2022/01/09 00:58:14;;;;;;;4.57;3.43;;;;;;;2.86;81.21;99331.41;5068259;28;20280;-71
2022/01/09 01:00:40;;;;;;;3.90;3.50;;;;;;;2.89;81.23;99329.78;5069819;28;20213;-70
2022/01/09 01:03:05;;;;;;;6.40;3.30;;;;;;;2.87;81.06;99318.81;5069978;28;20196;-71
2022/01/09 01:05:31;;;;;;;4.33;3.47;;;;;;;2.87;81.26;99321.34;5069563;28;20197;-71
2022/01/09 01:07:56;;;;;;;5.43;3.57;;;;;;;2.89;81.70;99322.22;5069590;28;20314;-71
2022/01/09 01:10:21;;;;;;;8.73;3.80;;;;;;;2.89;81.72;99317.16;5069425;28;20303;-71
2022/01/09 01:12:48;;;;;;;5.40;3.53;;;;;;;2.93;80.88;99318.06;5069757;28;20216;-71
2022/01/09 01:15:14;;;;;;;5.10;3.53;;;;;;;2.93;82.14;99321.47;5069844;28;20902;-71
2022/01/09 01:17:39;;;;;;;6.20;3.60;;;;;;;2.94;80.94;99319.81;5069640;28;20223;-71
2022/01/09 01:20:05;;;;;;;5.63;3.23;;;;;;;2.95;81.64;99319.00;5069273;28;20243;-71
2022/01/09 01:22:31;;;;;;;6.10;3.73;;;;;;;2.96;81.25;99313.09;5068139;28;20581;-71
2022/01/09 01:24:57;;;;;;;5.87;3.97;;;;;;;2.96;81.18;99319.03;5069308;28;20205;-71
2022/01/09 01:27:23;;;;;;;5.90;3.77;;;;;;;2.99;82.00;99310.66;5069087;28;20566;-71
2022/01/09 01:29:48;;;;;;;4.30;3.40;;;;;;;2.98;81.92;99304.75;5067667;28;20200;-71
2022/01/09 01:32:13;;;;;;;5.13;3.40;;;;;;;2.99;82.14;99310.66;5069280;28;20268;-71
2022/01/09 01:34:39;;;;;;;8.93;3.97;;;;;;;2.94;81.93;99297.91;5069173;28;20254;-71
2022/01/09 01:37:04;;;;;;;6.40;2.97;;;;;;;2.98;81.19;99302.22;5069106;28;20201;-71
2022/01/09 01:39:30;;;;;;;7.47;3.93;;;;;;;2.97;81.24;99303.03;5067366;28;20710;-71
2022/01/09 01:41:56;;;;;;;5.33;3.70;;;;;;;2.92;80.93;99288.56;5068944;28;20209;-71
2022/01/09 01:44:21;;;;;;;5.00;3.33;;;;;;;2.95;81.83;99292.03;5067696;28;20555;-71
2022/01/09 01:46:46;;;;;;;5.23;3.47;;;;;;;2.93;81.58;99285.22;5068882;28;20209;-71
2022/01/09 01:49:13;;;;;;;5.27;3.57;;;;;;;2.93;81.00;99287.75;5068708;28;20193;-71
2022/01/09 01:51:41;;;;;;;6.67;3.60;;;;;;;2.89;80.73;99281.78;5068971;28;20217;-71
2022/01/09 01:54:09;;;;;;;4.47;3.63;;;;;;;2.89;81.37;99271.66;5066789;28;20558;-71
2022/01/09 01:56:34;;;;;;;6.93;3.97;;;;;;;2.88;81.97;99269.09;5068699;28;20265;-71
2022/01/09 01:59:00;;;;;;;4.40;3.13;;;;;;;2.86;81.29;99266.56;5068681;28;20272;-71
2022/01/09 02:01:25;;;;;;;5.07;3.57;;;;;;;2.86;81.06;99256.44;5066998;28;20653;-71
2022/01/09 02:03:50;;;;;;;6.67;3.90;;;;;;;2.86;81.64;99263.16;5068605;28;20200;-71
2022/01/09 02:06:17;;;;;;;3.50;3.03;;;;;;;2.87;81.80;99267.41;5066583;28;20236;-71
2022/01/09 02:08:43;;;;;;;6.43;3.50;;;;;;;2.85;81.72;99272.41;5067019;28;20192;-71
2022/01/09 02:11:12;;;;;;;5.27;3.03;;;;;;;2.86;81.90;99273.28;5068811;28;20710;-71
2022/01/09 02:13:41;;;;;;;4.80;3.33;;;;;;;2.87;81.97;99269.91;5067458;28;20647;-71
2022/01/09 02:16:16;;;;;;;5.60;3.30;;;;;;;2.86;81.16;99273.28;5067332;28;20209;-71
2022/01/09 02:18:42;;;;;;;4.30;3.27;;;;;;;2.88;81.12;99262.38;5066006;28;20294;-71
2022/01/09 02:21:10;;;;;;;5.87;3.60;;;;;;;2.89;81.31;99268.31;5067507;28;20556;-71
2022/01/09 02:23:37;;;;;;;6.33;3.70;;;;;;;2.89;82.17;99265.78;5068658;28;20212;-71
2022/01/09 02:26:02;;;;;;;5.03;3.17;;;;;;;2.89;82.08;99264.09;5068475;28;20296;-71
2022/01/09 02:28:29;;;;;;;4.30;3.17;;;;;;;2.88;81.30;99259.84;5068564;28;20397;-71
2022/01/09 02:30:54;;;;;;;6.00;3.80;;;;;;;2.87;81.17;99259.81;5066615;28;20234;-71
2022/01/09 02:33:20;;;;;;;6.40;3.70;;;;;;;2.87;81.76;99253.09;5067238;28;20184;-71
2022/01/09 02:35:49;;;;;;;6.77;3.63;;;;;;;2.89;81.82;99263.25;5068432;28;20211;-71
2022/01/09 02:38:14;;;;;;;5.30;3.63;;;;;;;2.91;80.91;99248.97;5068270;28;20283;-71
2022/01/09 02:40:40;;;;;;;5.13;3.53;;;;;;;2.87;81.32;99252.22;5068327;28;20304;-71
2022/01/09 02:43:05;;;;;;;4.83;3.53;;;;;;;2.88;81.81;99243.81;5068441;28;20199;-71
2022/01/09 02:45:30;;;;;;;5.23;3.50;;;;;;;2.89;81.87;99243.88;5068186;28;20790;-71
2022/01/09 02:47:58;;;;;;;6.37;3.57;;;;;;;2.91;81.81;99251.50;5068221;28;20192;-71
2022/01/09 02:52:56;;;;;;;6.17;3.60;;;;;;;2.86;81.93;99243.81;5068085;28;20193;-71
2022/01/09 02:55:23;;;;;;;7.87;3.50;;;;;;;2.86;82.43;99242.94;5066364;28;20650;-71
2022/01/09 02:57:51;;;;;;;6.73;3.73;;;;;;;2.85;81.62;99239.56;5062388;28;20204;-71
2022/01/09 03:00:26;;;;;;;7.77;4.30;;;;;;;2.83;81.83;99236.16;5049034;28;20245;-71
2022/01/09 03:02:52;;;;;;;6.03;4.10;;;;;;;2.86;82.53;99233.72;5065117;28;20196;-71
2022/01/09 03:05:18;;;;;;;5.20;3.80;;;;;;;2.85;82.66;99233.66;5069262;28;20617;-71
2022/01/09 03:07:45;;;;;;;5.10;3.70;;;;;;;2.85;82.94;99233.66;5069062;28;20219;-71
2022/01/09 03:10:13;;;;;;;6.27;3.87;;;;;;;2.80;82.70;99215.84;5068830;28;20181;-71
2022/01/09 03:12:38;;;;;;;6.90;4.33;;;;;;;2.82;82.67;99221.81;5068920;28;20197;-71
2022/01/09 03:15:05;;;;;;;6.70;3.63;;;;;;;2.84;82.00;99221.81;5063113;28;20186;-71
2022/01/09 03:17:30;;;;;;;7.37;4.17;;;;;;;2.79;82.34;99220.88;5058478;28;20213;-71
2022/01/09 03:19:56;;;;;;;5.27;4.10;;;;;;;2.80;83.01;99213.31;5060498;28;20228;-71
2022/01/09 03:22:21;;;;;;;5.63;4.30;;;;;;;2.81;82.25;99225.13;5058325;28;20236;-71
2022/01/09 03:24:49;;;;;;;4.83;3.73;;;;;;;2.79;82.32;99209.09;5054163;28;20201;-70
2022/01/09 03:27:14;;;;;;;5.60;3.77;;;;;;;2.80;82.42;99220.06;5064764;28;20288;-71
2022/01/09 03:29:39;;;;;;;7.40;3.67;;;;;;;2.78;82.44;99211.59;5060094;28;20185;-71
2022/01/09 03:32:06;;;;;;;7.47;3.90;;;;;;;2.76;82.68;99215.75;5061162;28;20275;-71
2022/01/09 03:34:32;;;;;;;4.63;3.40;;;;;;;2.74;83.16;99205.63;5059572;28;20293;-71
2022/01/09 03:36:57;;;;;;;4.93;3.47;;;;;;;2.76;82.53;99211.53;5058272;28;20266;-71
2022/01/09 03:39:23;;;;;;;6.43;3.70;;;;;;;2.73;83.40;99200.53;5057540;28;20591;-71
2022/01/09 03:41:48;;;;;;;4.40;3.80;;;;;;;2.76;83.16;99200.59;5061237;28;20228;-71
2022/01/09 03:44:13;;;;;;;4.00;3.60;;;;;;;2.72;82.98;99204.72;5070059;28;20188;-70
2022/01/09 03:46:39;;;;;;;5.33;3.70;;;;;;;2.76;83.40;99203.13;5068241;28;20698;-71
2022/01/09 03:49:04;;;;;;;6.73;4.00;;;;;;;2.77;82.57;99202.31;5064672;28;20539;-71
2022/01/09 03:51:36;;;;;;;5.20;3.33;;;;;;;2.76;83.19;99198.91;5061557;28;20196;-71
2022/01/09 03:54:01;;;;;;;6.77;3.67;;;;;;;2.77;82.83;99195.59;5054680;28;20547;-71
2022/01/09 03:56:27;;;;;;;5.43;4.17;;;;;;;2.76;83.38;99200.59;5063350;28;20220;-71
2022/01/09 03:58:53;;;;;;;5.17;3.97;;;;;;;2.77;83.22;99197.25;5056379;28;20189;-71
2022/01/09 04:01:18;;;;;;;6.10;4.00;;;;;;;2.77;82.90;99203.16;5059101;28;20687;-71
2022/01/09 04:03:43;;;;;;;5.43;3.43;;;;;;;2.78;82.85;99202.34;5059345;28;20192;-71
2022/01/09 04:06:09;;;;;;;6.27;3.83;;;;;;;2.81;83.37;99202.41;5051691;28;20201;-71
2022/01/09 04:08:34;;;;;;;5.83;4.00;;;;;;;2.79;83.19;99196.47;5061896;28;20197;-71
2022/01/09 04:11:02;;;;;;;7.17;4.10;;;;;;;2.79;82.85;99210.75;5054075;28;20185;-71
2022/01/09 04:13:32;;;;;;;5.57;3.53;;;;;;;2.81;83.65;99204.09;5061931;28;20195;-71
2022/01/09 04:15:58;;;;;;;5.40;3.30;;;;;;;2.81;83.45;99209.97;5065372;28;20785;-71
2022/01/09 04:18:24;;;;;;;6.20;3.70;;;;;;;2.78;83.75;99204.88;5058188;28;20189;-71
2022/01/09 04:20:51;;;;;;;5.83;3.80;;;;;;;2.75;83.24;99207.31;5053374;28;20274;-71
2022/01/09 04:23:18;;;;;;;5.50;3.47;;;;;;;2.79;83.19;99211.63;5067326;28;20189;-71
2022/01/09 04:25:44;;;;;;;6.13;4.07;;;;;;;2.77;83.63;99212.41;5065997;28;20208;-71
2022/01/09 04:28:11;;;;;;;5.97;3.70;;;;;;;2.75;83.25;99206.47;5058927;28;20835;-71
2022/01/09 04:30:36;;;;;;;6.80;3.70;;;;;;;2.75;83.58;99202.25;5062132;28;20201;-71
2022/01/09 04:33:02;;;;;;;5.90;4.03;;;;;;;2.75;84.67;99207.31;5053844;28;20269;-71
2022/01/09 04:35:28;;;;;;;6.90;4.10;;;;;;;2.74;83.89;99207.28;5056008;28;20193;-71
2022/01/09 04:37:54;;;;;;;6.57;3.67;;;;;;;2.75;84.31;99217.41;5061466;28;20198;-71
2022/01/09 04:40:20;;;;;;;4.27;3.67;;;;;;;2.75;84.95;99207.31;5055133;28;20240;-71
2022/01/09 04:42:59;;;;;;;5.63;4.13;;;;;;;2.74;85.06;99214.84;5063842;28;20208;-71
2022/01/09 04:45:27;;;;;;;6.70;4.20;;;;;;;2.72;85.77;99209.75;5068109;28;20192;-71
2022/01/09 04:47:54;;;;;;;6.43;4.00;;;;;;;2.72;86.26;99217.34;5068351;28;20185;-71
2022/01/09 04:50:27;;;;;;;5.03;3.90;;;;;;;2.68;85.78;99204.63;5068702;28;20181;-71
2022/01/09 04:52:59;;;;;;;5.57;3.73;;;;;;;2.63;86.82;99203.66;5068352;28;20181;-71
2022/01/09 04:55:25;;;;;;;5.33;4.10;;;;;;;2.65;86.36;99207.06;5068861;28;20201;-71
2022/01/09 04:57:50;;;;;;;6.20;4.30;;;;;;;2.65;86.57;99212.09;5060117;28;20765;-71
2022/01/09 05:00:16;;;;;;;4.57;4.00;;;;;;;2.66;86.61;99207.09;5054743;28;20304;-71
2022/01/09 05:02:41;;;;;;;6.63;4.20;;;;;;;2.59;86.82;99210.31;5061428;28;20217;-71
2022/01/09 05:05:08;;;;;;;6.67;4.40;;;;;;;2.53;87.58;99214.34;5059083;28;20185;-71
2022/01/09 05:07:34;;;;;;;6.87;4.43;;;;;;;2.55;88.20;99210.19;5059951;28;20220;-71
2022/01/09 05:09:59;;;;;;;12.27;5.00;;;;;;;2.52;87.59;99213.50;5056385;28;20215;-71
2022/01/09 05:12:24;;;;;;;7.67;4.63;;;;;;;2.52;87.79;99223.59;5062218;28;20561;-71
2022/01/09 05:14:50;;;;;;;6.60;4.40;;;;;;;2.43;89.14;99222.53;5064997;28;20202;-71
2022/01/09 05:17:15;;;;;;;8.37;5.40;;;;;;;2.33;89.02;99223.97;5054174;28;20696;-71
2022/01/09 05:19:41;;;;;;;7.57;4.67;;;;;;;2.36;90.07;99230.75;5058958;28;20770;-71
2022/01/09 05:22:08;;;;;;;7.13;5.30;;;;;;;2.34;89.32;99224.81;5059080;28;20225;-71
2022/01/09 05:24:34;;;;;;;7.13;5.37;;;;;;;2.34;89.99;99225.66;5064765;28;20220;-71
2022/01/09 05:27:00;;;;;;;8.63;5.10;;;;;;;2.25;89.93;99227.94;5054141;28;20220;-71
2022/01/09 05:29:25;;;;;;;7.57;5.07;;;;;;;2.17;91.04;99233.63;5057797;28;20200;-71
2022/01/09 05:31:50;;;;;;;7.47;5.47;;;;;;;2.15;91.18;99237.78;5057618;28;20190;-71
2022/01/09 05:34:16;;;;;;;9.00;5.67;;;;;;;2.22;90.29;99235.47;5057340;28;20200;-71
2022/01/09 05:36:42;;;;;;;8.33;5.40;;;;;;;2.09;90.57;99240.13;5056649;28;20211;-71
2022/01/09 05:39:07;;;;;;;9.17;6.13;;;;;;;2.01;91.29;99234.03;5062832;28;20193;-71
2022/01/09 05:41:32;;;;;;;9.63;6.30;;;;;;;1.98;91.25;99239.00;5053890;28;20216;-71
2022/01/09 05:43:58;;;;;;;10.13;6.00;;;;;;;2.00;92.28;99243.28;5053425;28;20694;-71
2022/01/09 05:46:23;;;;;;;9.77;6.63;;;;;;;2.00;92.21;99248.31;5054249;28;20201;-71
2022/01/09 05:48:49;;;;;;;10.60;6.60;;;;;;;1.96;91.96;99244.00;5053944;28;20239;-71
2022/01/09 05:51:14;;;;;;;9.83;6.60;;;;;;;1.97;92.45;99249.91;5067480;28;20193;-71
2022/01/09 05:53:40;;;;;;;8.33;5.80;;;;;;;1.98;92.83;99252.47;5064832;28;20201;-71
2022/01/09 05:56:05;;;;;;;8.50;6.97;;;;;;;1.97;92.94;99258.31;5057008;28;20217;-71
2022/01/09 05:58:33;;;;;;;10.47;6.57;;;;;;;1.96;92.69;99251.56;5064544;28;20284;-71
2022/01/09 06:00:59;;;;;;;10.50;6.63;;;;;;;1.98;92.71;99254.16;5056756;28;20628;-71
2022/01/09 06:03:24;;;;;;;8.87;7.40;;;;;;;1.88;92.47;99258.06;5060508;28;20284;-71
2022/01/09 06:05:51;;;;;;;10.90;7.27;;;;;;;1.88;93.06;99260.59;5060015;28;20300;-71
2022/01/09 06:08:16;;;;;;;10.23;6.80;;;;;;;1.92;92.42;99262.41;5060113;28;20197;-71
2022/01/09 06:10:41;;;;;;;12.40;7.63;;;;;;;1.86;93.69;99264.75;5053757;28;20234;-71
2022/01/09 06:13:07;;;;;;;11.03;7.43;;;;;;;1.88;93.79;99268.16;5053234;28;20664;-71
2022/01/09 06:15:32;;;;;;;10.03;7.20;;;;;;;1.86;93.19;99261.38;5051188;28;20279;-71
2022/01/09 06:17:57;;;;;;;13.53;7.70;;;;;;;1.92;92.91;99262.41;5052039;28;20647;-71
2022/01/09 06:20:22;;;;;;;8.37;6.90;;;;;;;1.90;93.95;99265.69;5057602;28;20779;-71
2022/01/09 06:22:48;;;;;;;10.40;7.80;;;;;;;1.92;93.28;99264.09;5058483;28;20271;-71
2022/01/09 06:25:13;;;;;;;10.90;7.80;;;;;;;1.98;93.33;99274.34;5056230;28;20228;-71
2022/01/09 06:27:39;;;;;;;10.83;7.67;;;;;;;1.92;93.12;99279.22;5054345;28;20270;-71
2022/01/09 06:30:06;;;;;;;10.20;7.30;;;;;;;1.93;93.29;99279.25;5050654;28;20555;-71
2022/01/09 06:32:31;;;;;;;11.23;8.10;;;;;;;1.84;93.98;99273.94;5060120;28;20200;-71
2022/01/09 06:34:57;;;;;;;10.63;8.20;;;;;;;1.82;93.35;99277.22;5061266;28;20605;-71
2022/01/09 06:37:22;;;;;;;12.83;8.63;;;;;;;1.85;94.57;99282.38;5059916;28;20201;-71
2022/01/09 06:39:48;;;;;;;14.97;9.30;;;;;;;1.93;93.71;99275.88;5062346;28;20725;-71
2022/01/09 06:42:13;;;;;;;11.20;7.73;;;;;;;1.89;93.70;99282.47;5060750;28;20200;-71
2022/01/09 06:44:39;;;;;;;12.97;8.33;;;;;;;1.90;93.51;99283.34;5058624;28;20323;-71
2022/01/09 06:47:04;;;;;;;12.47;8.50;;;;;;;1.90;93.71;99289.25;5054719;28;20275;-72
2022/01/09 06:49:30;;;;;;;11.73;8.70;;;;;;;1.88;94.54;99293.41;5054595;28;20197;-71
2022/01/09 06:51:55;;;;;;;12.47;8.63;;;;;;;1.93;93.73;99298.59;5053254;28;20185;-71
2022/01/09 06:54:20;;;;;;;12.43;8.83;;;;;;;1.90;93.76;99294.31;5059653;28;20713;-71
2022/01/09 06:56:46;;;;;;;11.87;8.97;;;;;;;1.90;93.51;99306.94;5061265;28;20213;-71
2022/01/09 06:59:11;;;;;;;10.33;8.27;;;;;;;1.92;94.05;99304.44;5064675;28;20605;-71
2022/01/09 07:01:36;;;;;;;11.80;9.20;;;;;;;1.93;93.86;99306.16;5059995;28;20232;-71
2022/01/09 07:04:02;;;;;;;12.40;8.60;;;;;;;1.97;93.49;99307.97;5062127;28;20280;-70
2022/01/09 07:06:27;;;;;;;13.17;9.07;;;;;;;1.89;94.08;99307.72;5060492;28;20247;-71
2022/01/09 07:08:53;;;;;;;13.73;9.30;;;;;;;1.92;94.53;99315.38;5062570;28;20189;-71
2022/01/09 07:11:18;;;;;;;13.50;9.73;;;;;;;1.92;93.87;99324.63;5066734;28;20189;-71
2022/01/09 07:13:43;;;;;;;13.20;9.70;;;;;;;1.92;94.78;99315.38;5061837;28;20673;-71
2022/01/09 07:16:09;;;;;;;15.97;11.10;;;;;;;1.96;94.17;99331.44;5055589;28;20644;-71
2022/01/09 07:18:34;;;;;;;17.43;11.63;;;;;;;1.96;93.73;99331.44;5057681;28;20628;-71
2022/01/09 07:20:59;;;;;;;15.90;11.33;;;;;;;1.93;94.22;99333.91;5053036;28;20846;-71
2022/01/09 07:23:25;;;;;;;16.50;12.97;;;;;;;1.94;94.56;99330.56;5058610;28;20221;-71
2022/01/09 07:25:51;;;;;;;12.27;9.90;;;;;;;1.93;94.80;99329.69;5060935;28;20956;-71
2022/01/09 07:28:16;;;;;;;15.30;11.57;;;;;;;1.93;94.68;99332.22;5058912;28;20655;-71
2022/01/09 07:30:42;;;;;;;14.77;10.60;;;;;;;1.95;94.93;99335.66;5036304;28;20239;-70
2022/01/09 07:33:08;;;;;;;12.77;10.17;;;;;;;1.98;94.46;99345.81;5058608;28;20634;-71
2022/01/09 07:35:34;;;;;;;15.97;11.23;;;;;;;1.91;93.90;99346.47;5054049;28;20178;-70
2022/01/09 07:37:59;;;;;;;11.87;10.63;;;;;;;1.94;94.14;99346.56;5065782;28;20185;-70
2022/01/09 07:40:24;;;;;;;14.90;11.00;;;;;;;2.01;94.56;99345.06;5065544;28;20213;-71
2022/01/09 07:42:50;;;;;;;12.37;10.13;;;;;;;2.02;94.22;99347.63;5066290;28;20569;-70
2022/01/09 07:45:22;;;;;;;12.50;10.60;;;;;;;2.05;94.11;99347.72;5072299;28;20199;-71
2022/01/09 07:47:48;;;;;;;13.37;10.50;;;;;;;2.02;93.63;99352.69;5072254;28;20216;-70
2022/01/09 07:50:14;;;;;;;13.23;10.33;;;;;;;2.07;94.58;99363.75;5070844;28;20185;-70
2022/01/09 07:52:40;;;;;;;15.40;10.60;;;;;;;2.09;93.70;99357.09;5072227;28;20189;-70
2022/01/09 07:55:05;;;;;;;12.13;9.97;;;;;;;2.13;94.08;99360.56;5071951;28;20230;-71
2022/01/09 07:57:31;;;;;;;15.70;10.97;;;;;;;2.11;94.25;99368.09;5071952;28;20304;-70
2022/01/09 07:59:57;;;;;;;13.50;10.47;;;;;;;2.07;93.51;99360.41;5071706;28;20201;-70
2022/01/09 08:02:23;;;;;;;13.93;11.73;;;;;;;2.09;94.22;99367.19;5072025;28;20185;-70
2022/01/09 08:04:49;;;;;;;15.40;11.03;;;;;;;2.04;94.60;99367.88;5071137;28;20589;-70
2022/01/09 08:07:14;;;;;;;15.17;11.80;;;;;;;2.07;94.36;99376.38;5071912;28;20251;-70
2022/01/09 08:09:40;;;;;;;16.93;12.23;;;;;;;2.07;94.70;99378.06;5071806;28;20177;-70
2022/01/09 08:12:08;;;;;;;15.53;12.47;;;;;;;2.14;93.72;99382.44;5072014;28;20191;-70
2022/01/09 08:14:34;;;;;;;15.23;11.80;;;;;;;2.11;93.94;99380.69;5071807;28;20189;-70
2022/01/09 08:16:59;;;;;;;13.57;11.13;;;;;;;2.15;94.77;99387.56;5071510;28;20213;-70
2022/01/09 08:19:25;;;;;;;13.10;11.17;;;;;;;2.13;94.69;99383.28;5070096;28;20203;-71
2022/01/09 08:21:50;;;;;;;15.53;11.43;;;;;;;2.10;93.92;99383.19;5071749;28;20237;-71
2022/01/09 08:24:15;;;;;;;13.87;11.33;;;;;;;2.08;94.98;99388.22;5071808;28;20278;-70
2022/01/09 08:26:41;;;;;;;14.67;11.93;;;;;;;2.12;93.99;99387.44;5072148;28;20209;-71
2022/01/09 08:29:06;;;;;;;15.17;11.40;;;;;;;2.08;94.51;99398.31;5071913;28;20181;-71
2022/01/09 08:31:32;;;;;;;15.30;11.73;;;;;;;2.12;95.14;99391.66;5071934;28;20180;-70
2022/01/09 08:33:57;;;;;;;15.07;12.10;;;;;;;2.16;94.14;99399.34;5067512;28;20185;-71
2022/01/09 08:36:22;;;;;;;16.47;12.27;;;;;;;2.14;94.90;99390.91;5054087;28;20272;-71
2022/01/09 08:38:48;;;;;;;15.77;12.43;;;;;;;2.22;93.83;99397.03;5051252;28;20194;-70
2022/01/09 08:41:14;;;;;;;15.40;12.93;;;;;;;2.21;94.04;99397.81;5050952;28;20275;-70
2022/01/09 08:43:39;;;;;;;16.30;12.23;;;;;;;2.20;94.41;99396.09;5051218;28;20632;-70
2022/01/09 08:46:05;;;;;;;16.63;12.80;;;;;;;2.19;94.09;99396.94;5051191;28;20241;-70
2022/01/09 08:48:30;;;;;;;15.67;12.77;;;;;;;2.20;94.82;99397.78;5051057;28;20269;-70
2022/01/09 08:50:56;;;;;;;16.50;12.50;;;;;;;2.24;95.26;99397.03;5065419;28;20258;-71
2022/01/09 08:53:21;;;;;;;15.87;12.77;;;;;;;2.31;93.97;99409.03;5071048;28;20188;-71
2022/01/09 08:55:46;;;;;;;14.80;12.20;;;;;;;2.31;94.23;99406.53;5070973;28;20681;-71
2022/01/09 08:58:12;;;;;;;14.70;12.23;;;;;;;2.29;95.11;99406.47;5070710;28;20177;-71
2022/01/09 09:00:37;;;;;;;16.50;12.83;;;;;;;2.30;94.29;99409.88;5070925;28;20213;-72
2022/01/09 09:03:04;;;;;;;16.97;12.07;;;;;;;2.33;94.88;99409.94;5070859;28;20273;-72
2022/01/09 09:05:29;;;;;;;19.30;15.30;;;;;;;2.33;94.27;99410.78;5070632;28;20209;-71
2022/01/09 09:07:55;;;;;;;16.70;12.30;;;;;;;2.33;94.75;99413.31;5070562;28;20189;-71
2022/01/09 09:10:20;;;;;;;16.07;11.83;;;;;;;2.39;94.28;99410.13;5070708;28;20212;-71
2022/01/09 09:12:45;;;;;;;15.57;13.23;;;;;;;2.44;94.08;99423.72;5070625;28;20224;-71
2022/01/09 09:15:12;;;;;;;15.40;12.77;;;;;;;2.37;94.01;99422.69;5070541;28;20262;-71
2022/01/09 09:17:37;;;;;;;18.13;13.20;;;;;;;2.35;94.67;99428.53;5070550;28;20221;-71
2022/01/09 09:20:04;;;;;;;16.20;13.17;;;;;;;2.39;94.31;99427.81;5070028;28;20185;-71
2022/01/09 09:22:30;;;;;;;15.47;13.00;;;;;;;2.36;94.72;99428.56;5062220;28;20197;-72
2022/01/09 09:24:56;;;;;;;18.03;13.80;;;;;;;2.34;94.81;99430.19;5062555;28;20189;-72
2022/01/09 09:27:21;;;;;;;18.00;13.23;;;;;;;2.33;94.84;99430.13;5060922;28;20588;-72
2022/01/09 09:29:47;;;;;;;18.17;13.13;;;;;;;2.36;94.83;99438.66;5062858;28;20197;-71
2022/01/09 09:32:13;;;;;;;18.47;13.87;;;;;;;2.39;95.24;99442.94;5061094;28;20233;-71
2022/01/09 09:34:39;;;;;;;20.07;14.13;;;;;;;2.41;94.65;99449.75;5060329;28;20204;-72
2022/01/09 09:37:05;;;;;;;15.63;12.97;;;;;;;2.41;94.19;99459.00;5044910;28;20211;-72
2022/01/09 09:39:31;;;;;;;17.40;13.17;;;;;;;2.39;94.83;99460.63;5065815;28;20292;-72
2022/01/09 09:41:56;;;;;;;16.30;12.63;;;;;;;2.37;95.33;99462.22;5062181;28;20679;-72
2022/01/09 09:44:21;;;;;;;17.07;13.13;;;;;;;2.33;94.81;99462.94;5055435;28;20193;-72
2022/01/09 09:46:49;;;;;;;17.20;13.60;;;;;;;2.35;95.22;99462.19;5056778;28;20237;-72
2022/01/09 09:49:16;;;;;;;15.93;12.70;;;;;;;2.36;94.84;99465.56;5058239;28;20185;-72
2022/01/09 09:51:42;;;;;;;17.10;13.13;;;;;;;2.40;95.31;99467.38;5064499;28;20196;-71
2022/01/09 09:54:07;;;;;;;16.23;12.40;;;;;;;2.41;95.35;99466.56;5051035;28;20714;-71
2022/01/09 09:56:32;;;;;;;18.73;13.30;;;;;;;2.41;95.40;99466.56;5062692;28;20244;-72
2022/01/09 09:58:59;;;;;;;18.13;13.20;;;;;;;2.47;94.26;99461.69;5052178;28;20182;-73
2022/01/09 10:01:35;;;;;;;17.97;12.23;;;;;;;2.41;94.19;99467.44;5054055;28;20221;-72
2022/01/09 10:04:06;;;;;;;16.47;13.13;;;;;;;2.41;95.26;99467.44;5057180;28;20188;-71
2022/01/09 10:06:35;;;;;;;17.30;12.93;;;;;;;2.44;95.53;99464.97;5064101;28;20225;-72
2022/01/09 10:09:15;;;;;;;19.40;13.97;;;;;;;2.95;95.85;99456.31;5069412;28;20638;-74
2022/01/09 10:11:45;;;;;;;15.00;11.97;;;;;;;3.20;95.55;99455.28;5053809;28;20181;-74
2022/01/09 10:14:12;;;;;;;14.70;12.07;;;;;;;3.31;94.35;99452.22;5049221;28;20619;-75
2022/01/09 10:16:38;;;;;;;12.23;10.63;;;;;;;3.23;93.12;99462.97;5054946;28;20228;-75
2022/01/09 10:19:03;;;;;;;13.07;11.37;;;;;;;3.00;93.15;99471.63;5063333;28;20216;-73
2022/01/09 10:21:28;;;;;;;13.07;10.80;;;;;;;3.04;93.23;99466.66;5066931;28;20295;-73
2022/01/09 10:24:06;;;;;;;13.03;10.73;;;;;;;3.19;93.25;99476.34;5057844;28;20182;-75
2022/01/09 10:26:34;;;;;;;12.87;10.87;;;;;;;3.01;92.85;99473.31;5053928;28;20251;-73
2022/01/09 10:29:00;;;;;;;13.60;11.17;;;;;;;2.87;92.76;99477.16;5050080;28;20265;-72
2022/01/09 10:31:26;;;;;;;13.27;11.63;;;;;;;2.94;93.34;99474.00;5066151;28;20666;-73
2022/01/09 10:34:10;;;;;;;17.07;11.53;;;;;;;2.94;93.64;99481.56;5057335;28;20266;-71
2022/01/09 10:36:44;;;;;;;17.83;13.03;;;;;;;2.98;93.46;99481.69;5057283;28;20823;-72
2022/01/09 10:39:13;;;;;;;28.20;20.13;;;;;;;2.93;94.24;99482.34;5060862;28;20265;-72
2022/01/09 10:41:58;;;;;;;19.43;15.83;;;;;;;3.03;93.44;99482.66;5055246;28;20213;-71
2022/01/09 10:44:34;;;;;;;17.63;15.30;;;;;;;2.99;93.58;99485.06;5060157;28;20589;-71
2022/01/09 10:47:12;;;;;;;18.73;14.90;;;;;;;3.05;93.64;99486.09;5064068;28;20266;-71
2022/01/09 10:49:52;;;;;;;14.57;12.03;;;;;;;3.01;94.25;99491.00;5058514;28;20583;-72
2022/01/09 10:52:21;;;;;;;19.00;14.27;;;;;;;3.02;94.65;99490.19;5053950;28;20276;-71
2022/01/09 10:54:48;;;;;;;16.87;14.63;;;;;;;3.16;94.50;99496.47;5066798;28;20185;-71
2022/01/09 10:57:20;;;;;;;18.80;12.97;;;;;;;3.14;94.28;99503.19;5061697;28;20225;-72
2022/01/09 10:59:45;;;;;;;19.23;13.70;;;;;;;3.20;93.61;99499.13;5065214;28;20182;-71
2022/01/09 11:02:12;;;;;;;16.97;13.00;;;;;;;3.20;94.69;99503.31;5059483;28;21022;-72
2022/01/09 11:04:38;;;;;;;15.50;12.17;;;;;;;3.22;93.57;99497.50;5059225;28;20198;-72
2022/01/09 11:07:03;;;;;;;16.27;13.77;;;;;;;3.20;94.19;99499.13;5059482;28;20239;-71
2022/01/09 11:09:30;;;;;;;15.93;12.70;;;;;;;3.21;94.68;99499.97;5061451;28;20288;-72
2022/01/09 11:11:55;;;;;;;15.47;12.50;;;;;;;3.20;94.21;99503.31;5058497;28;20193;-72
2022/01/09 11:14:22;;;;;;;18.47;13.47;;;;;;;3.27;94.70;99495.09;5054471;28;20198;-72
2022/01/09 11:16:54;;;;;;;16.03;12.77;;;;;;;3.23;94.22;99506.81;5058659;28;20215;-72
2022/01/09 11:19:23;;;;;;;16.57;12.63;;;;;;;3.14;95.20;99508.22;5069143;28;20637;-72
2022/01/09 11:21:55;;;;;;;19.00;13.27;;;;;;;3.18;95.26;99515.91;5055524;28;20217;-72
2022/01/09 11:25:08;;;;;;;17.13;12.90;;;;;;;3.14;95.14;99518.34;5057416;28;20194;-71
2022/01/09 11:27:53;;;;;;;18.40;12.10;;;;;;;3.17;95.97;99519.28;5067682;28;20716;-72
2022/01/09 11:30:52;;;;;;;15.70;12.10;;;;;;;3.19;95.52;99514.25;5051452;28;20254;-70
2022/01/09 11:33:50;;;;;;;15.53;12.33;;;;;;;3.17;96.07;99511.69;5058729;28;20222;-73
2022/01/09 11:36:24;;;;;;;15.40;11.93;;;;;;;3.18;95.81;99510.03;5048322;28;20206;-72